Time;durP1;ratioP1;P1;durP2;ratioP2;P2;SDS_P1;SDS_P2;PMS_P1;PMS_P2;Temp;Humidity;BMP_temperature;BMP_pressure;BME280_temperature;BME280_humidity;BME280_pressure;Samples;Min_cycle;Max_cycle;Signal;HPM_P1;HPM_P2
2022/11/29 00:01:38;;;;;;;12.67;11.27;;;8.90;98.60;;;;;;5099557;28;20170;-44
2022/11/29 00:04:04;;;;;;;13.60;11.53;;;8.80;98.60;;;;;;5098819;28;20410;-42
2022/11/29 00:06:31;;;;;;;12.20;11.00;;;8.90;98.70;;;;;;5098764;28;20426;-44
2022/11/29 00:09:00;;;;;;;16.80;12.80;;;8.80;98.60;;;;;;5099076;28;20414;-43
2022/11/29 00:14:15;;;;;;;12.20;10.90;;;8.90;98.70;;;;;;5098111;28;20409;-41
2022/11/29 00:16:41;;;;;;;11.83;10.63;;;8.80;98.70;;;;;;5097408;28;20820;-44
2022/11/29 00:19:08;;;;;;;11.07;10.07;;;8.90;98.80;;;;;;5098238;28;20753;-43
2022/11/29 00:21:34;;;;;;;12.10;10.80;;;8.90;98.70;;;;;;5098309;28;20415;-45
2022/11/29 00:24:00;;;;;;;11.00;10.00;;;8.90;98.70;;;;;;5097223;28;20410;-43
2022/11/29 00:26:25;;;;;;;12.27;11.07;;;8.90;98.80;;;;;;5098745;28;20548;-42
2022/11/29 00:28:51;;;;;;;10.57;9.57;;;8.90;98.80;;;;;;5098250;28;20442;-43
2022/11/29 00:31:23;;;;;;;12.30;11.00;;;8.90;98.80;;;;;;5098996;28;20175;-42
2022/11/29 00:33:49;;;;;;;11.50;10.40;;;8.90;98.80;;;;;;5097402;28;20455;-44
2022/11/29 00:36:16;;;;;;;10.37;9.37;;;8.80;98.70;;;;;;5097359;28;20419;-42
2022/11/29 00:38:42;;;;;;;12.73;11.53;;;8.80;98.80;;;;;;5097574;28;20419;-44
2022/11/29 00:41:08;;;;;;;11.47;10.00;;;8.80;98.80;;;;;;5097922;28;20522;-44
2022/11/29 00:43:34;;;;;;;10.33;9.43;;;8.80;98.80;;;;;;5097202;28;20673;-42
2022/11/29 00:45:59;;;;;;;11.13;10.03;;;8.80;98.80;;;;;;5097499;28;20452;-45
2022/11/29 00:48:25;;;;;;;11.50;10.10;;;8.80;98.80;;;;;;5098015;28;20184;-43
2022/11/29 00:50:51;;;;;;;10.83;9.80;;;8.80;98.80;;;;;;5098262;28;20494;-44
2022/11/29 00:53:17;;;;;;;11.47;10.40;;;8.80;98.80;;;;;;5098264;28;20708;-42
2022/11/29 00:55:43;;;;;;;11.17;10.07;;;8.80;98.80;;;;;;5098349;28;20184;-42
2022/11/29 00:58:09;;;;;;;10.27;9.20;;;8.80;98.90;;;;;;5098615;28;20172;-45
2022/11/29 01:00:36;;;;;;;10.10;9.10;;;8.80;98.90;;;;;;5098228;28;20493;-42
2022/11/29 01:03:02;;;;;;;10.87;9.77;;;8.80;98.90;;;;;;5097881;28;20425;-42
2022/11/29 01:05:30;;;;;;;10.07;9.07;;;8.80;98.90;;;;;;5098332;28;20176;-43
2022/11/29 01:07:55;;;;;;;11.53;9.10;;;8.80;99.00;;;;;;5098338;28;20169;-43
2022/11/29 01:10:21;;;;;;;9.63;8.63;;;8.80;98.90;;;;;;5098103;28;20448;-43
2022/11/29 01:12:47;;;;;;;10.27;9.37;;;8.80;99.20;;;;;;5097632;28;20623;-42
2022/11/29 01:15:13;;;;;;;10.23;9.23;;;8.80;99.00;;;;;;5097245;28;20245;-45
2022/11/29 01:17:39;;;;;;;9.77;8.87;;;8.80;99.00;;;;;;5096426;28;20176;-43
2022/11/29 01:20:06;;;;;;;9.93;8.83;;;8.80;99.00;;;;;;5095979;28;20211;-43
2022/11/29 01:22:33;;;;;;;9.37;8.50;;;8.80;99.10;;;;;;5097408;28;20422;-42
2022/11/29 01:24:59;;;;;;;8.77;7.97;;;8.80;99.00;;;;;;5097666;28;20457;-45
2022/11/29 01:27:24;;;;;;;8.00;7.23;;;8.80;99.10;;;;;;5096960;28;20658;-42
2022/11/29 01:29:50;;;;;;;8.73;7.73;;;8.80;99.10;;;;;;5096421;28;20180;-45
2022/11/29 01:32:16;;;;;;;9.07;8.17;;;8.80;99.20;;;;;;5097097;28;20184;-41
2022/11/29 01:34:41;;;;;;;7.40;6.80;;;8.80;99.30;;;;;;5097275;28;20219;-43
2022/11/29 01:37:07;;;;;;;7.50;6.80;;;8.80;99.30;;;;;;5097701;28;20195;-42
2022/11/29 01:39:32;;;;;;;6.90;6.30;;;8.80;99.30;;;;;;5096699;28;20487;-43
2022/11/29 01:41:59;;;;;;;6.57;5.57;;;8.70;99.30;;;;;;5097186;28;20168;-42
2022/11/29 01:44:28;;;;;;;6.60;6.00;;;8.70;99.30;;;;;;5097520;28;20249;-42
2022/11/29 01:46:54;;;;;;;5.97;5.37;;;8.70;99.40;;;;;;5097899;28;20808;-43
2022/11/29 01:49:23;;;;;;;5.90;5.30;;;8.70;99.40;;;;;;5097712;28;20505;-41
2022/11/29 01:51:58;;;;;;;5.50;5.00;;;8.70;99.40;;;;;;5097651;28;20418;-44
2022/11/29 01:54:24;;;;;;;5.30;4.80;;;8.70;99.50;;;;;;5097848;28;20475;-43
2022/11/29 01:56:51;;;;;;;5.10;4.43;;;8.70;99.60;;;;;;5096927;28;20798;-42
2022/11/29 01:59:21;;;;;;;4.90;4.40;;;8.70;99.60;;;;;;5097097;28;20477;-41
2022/11/29 02:01:46;;;;;;;4.70;4.30;;;8.70;99.70;;;;;;5097598;28;20421;-43
2022/11/29 02:04:13;;;;;;;5.60;4.93;;;8.70;99.70;;;;;;5097706;28;20501;-43
2022/11/29 02:06:40;;;;;;;4.53;3.93;;;8.70;99.70;;;;;;5096466;28;20305;-44
2022/11/29 02:09:20;;;;;;;4.00;3.57;;;8.70;99.80;;;;;;5097163;28;20426;-42
2022/11/29 02:12:01;;;;;;;4.13;3.73;;;8.70;99.80;;;;;;5097362;28;20418;-43
2022/11/29 02:14:39;;;;;;;4.40;3.80;;;8.70;99.80;;;;;;5096783;28;20487;-43
2022/11/29 02:17:10;;;;;;;4.80;3.70;;;8.70;99.80;;;;;;5096611;28;20429;-46
2022/11/29 02:20:14;;;;;;;3.47;3.17;;;8.70;99.80;;;;;;5096092;28;20469;-43
2022/11/29 02:23:00;;;;;;;5.33;3.43;;;8.70;99.80;;;;;;5096463;28;20463;-44
2022/11/29 02:25:39;;;;;;;3.80;3.50;;;8.70;99.80;;;;;;5095912;28;20414;-43
2022/11/29 02:28:42;;;;;;;4.37;3.97;;;8.70;99.80;;;;;;5096348;28;20422;-44
2022/11/29 02:31:40;;;;;;;3.67;3.30;;;8.70;99.70;;;;;;5096995;28;20700;-44
2022/11/29 02:34:06;;;;;;;3.63;3.23;;;8.70;99.70;;;;;;5097056;28;20516;-42
2022/11/29 02:37:00;;;;;;;3.80;3.50;;;8.60;99.70;;;;;;5096816;28;20430;-44
2022/11/29 02:39:46;;;;;;;4.87;3.90;;;8.60;99.60;;;;;;5096391;28;20204;-42
2022/11/29 02:42:15;;;;;;;3.83;3.43;;;8.60;99.70;;;;;;5095846;28;20422;-43
2022/11/29 02:45:22;;;;;;;3.83;3.43;;;8.60;99.70;;;;;;5097106;28;20781;-44
2022/11/29 02:48:18;;;;;;;5.20;3.87;;;8.60;99.70;;;;;;5100984;28;20493;-46
2022/11/29 02:51:10;;;;;;;3.90;3.57;;;8.60;99.70;;;;;;5100932;28;20734;-43
2022/11/29 02:53:47;;;;;;;3.70;3.40;;;8.60;99.60;;;;;;5100119;28;20938;-42
2022/11/29 02:56:30;;;;;;;3.93;3.53;;;8.60;99.70;;;;;;5099467;28;20955;-43
2022/11/29 02:59:04;;;;;;;5.03;4.10;;;8.60;99.70;;;;;;5100228;28;20847;-44
2022/11/29 03:01:39;;;;;;;4.50;4.10;;;8.60;99.60;;;;;;5099544;28;20425;-43
2022/11/29 03:04:40;;;;;;;5.90;4.20;;;8.60;99.60;;;;;;5100330;28;20465;-41
2022/11/29 03:07:10;;;;;;;4.43;4.03;;;8.60;99.60;;;;;;5099623;28;20406;-42
2022/11/29 03:10:05;;;;;;;4.13;3.73;;;8.60;99.60;;;;;;5099193;28;20426;-45
2022/11/29 03:12:38;;;;;;;4.23;3.83;;;8.60;99.60;;;;;;5080639;28;20434;-42
2022/11/29 03:15:26;;;;;;;4.37;3.80;;;8.60;99.50;;;;;;5098910;28;20440;-43
2022/11/29 03:18:01;;;;;;;4.40;4.00;;;8.60;99.50;;;;;;5100594;28;20735;-42
2022/11/29 03:20:58;;;;;;;4.03;3.60;;;8.70;99.60;;;;;;5098639;28;20465;-44
2022/11/29 03:23:46;;;;;;;5.00;4.53;;;8.70;99.50;;;;;;5098744;28;20743;-43
2022/11/29 03:26:31;;;;;;;3.70;3.33;;;8.70;99.50;;;;;;5098617;28;20705;-43
2022/11/29 03:29:06;;;;;;;4.10;3.70;;;8.70;99.50;;;;;;5097778;28;20447;-45
2022/11/29 03:31:54;;;;;;;4.63;4.23;;;8.70;99.50;;;;;;5099565;28;20425;-47
2022/11/29 03:34:22;;;;;;;4.53;4.13;;;8.70;99.40;;;;;;5099423;28;20422;-43
2022/11/29 03:36:59;;;;;;;4.60;4.20;;;8.70;99.50;;;;;;5098178;28;20678;-42
2022/11/29 03:39:52;;;;;;;4.20;3.80;;;8.70;99.50;;;;;;5096537;28;20508;-44
2022/11/29 03:42:40;;;;;;;5.17;3.63;;;8.70;99.40;;;;;;5094461;28;20427;-43
2022/11/29 03:46:00;;;;;;;3.73;3.43;;;8.70;99.40;;;;;;5087653;28;20681;-43
2022/11/29 03:48:26;;;;;;;3.87;3.43;;;8.70;99.40;;;;;;5096525;28;20438;-42
2022/11/29 03:50:55;;;;;;;3.80;3.40;;;8.70;99.40;;;;;;5096629;28;20449;-45
2022/11/29 03:53:36;;;;;;;4.63;4.17;;;8.70;99.30;;;;;;5087608;28;20192;-43
2022/11/29 03:56:20;;;;;;;4.80;4.30;;;8.70;99.40;;;;;;5099590;28;20465;-44
2022/11/29 03:59:03;;;;;;;4.20;3.80;;;8.70;99.40;;;;;;5097734;28;20701;-43
2022/11/29 04:01:48;;;;;;;3.63;3.33;;;8.70;99.30;;;;;;5099950;28;20437;-44
2022/11/29 04:04:34;;;;;;;3.50;3.10;;;8.70;99.30;;;;;;5099472;28;20820;-42
2022/11/29 04:07:03;;;;;;;3.40;3.10;;;8.70;99.40;;;;;;5098816;28;20414;-45
2022/11/29 04:09:39;;;;;;;4.60;3.93;;;8.70;99.40;;;;;;5097487;28;20722;-45
2022/11/29 04:12:34;;;;;;;3.40;2.90;;;8.70;99.40;;;;;;5095343;28;20410;-42
2022/11/29 04:15:24;;;;;;;4.10;2.77;;;8.70;99.40;;;;;;5094863;28;20927;-44
2022/11/29 04:17:49;;;;;;;2.70;2.50;;;8.70;99.30;;;;;;5094361;28;20446;-43
2022/11/29 04:20:30;;;;;;;3.70;3.40;;;8.70;99.40;;;;;;5095369;28;20535;-43
2022/11/29 04:23:08;;;;;;;5.07;4.57;;;8.70;99.40;;;;;;5095962;28;20249;-44
2022/11/29 04:26:38;;;;;;;2.93;2.63;;;8.70;99.40;;;;;;5096310;28;20422;-42
2022/11/29 04:29:27;;;;;;;4.17;3.27;;;8.70;99.50;;;;;;5073788;28;20425;-44
2022/11/29 04:32:08;;;;;;;3.60;2.80;;;8.70;99.40;;;;;;5096061;28;20465;-43
2022/11/29 04:34:47;;;;;;;3.30;3.00;;;8.70;99.50;;;;;;5095061;28;20491;-44
2022/11/29 04:37:47;;;;;;;3.17;2.87;;;8.70;99.50;;;;;;5095992;28;20429;-43
2022/11/29 04:40:31;;;;;;;4.70;4.13;;;8.70;99.50;;;;;;5097291;28;20462;-45
2022/11/29 04:43:38;;;;;;;3.87;3.47;;;8.70;99.40;;;;;;5098351;28;20441;-42
2022/11/29 04:46:19;;;;;;;3.50;3.20;;;8.70;99.40;;;;;;5095519;28;20507;-45
2022/11/29 04:49:06;;;;;;;3.20;2.90;;;8.70;99.40;;;;;;5097064;28;20437;-43
2022/11/29 04:52:04;;;;;;;4.33;3.57;;;8.70;99.40;;;;;;5096280;28;20490;-42
2022/11/29 04:54:55;;;;;;;3.97;3.57;;;8.70;99.40;;;;;;5094382;28;20430;-43
2022/11/29 04:57:38;;;;;;;4.60;3.50;;;8.70;99.40;;;;;;5094982;28;20461;-45
2022/11/29 05:00:06;;;;;;;3.80;3.40;;;8.70;99.40;;;;;;5095119;28;20486;-44
2022/11/29 05:02:53;;;;;;;3.70;3.30;;;8.70;99.40;;;;;;5095163;28;20770;-44
2022/11/29 05:06:18;;;;;;;3.50;3.20;;;8.70;99.40;;;;;;5096601;28;20427;-43
2022/11/29 05:09:20;;;;;;;5.70;3.13;;;8.70;99.40;;;;;;5094234;28;20775;-46
2022/11/29 05:12:16;;;;;;;5.87;3.10;;;8.70;99.40;;;;;;5075700;28;20426;-43
2022/11/29 05:14:57;;;;;;;3.10;2.80;;;8.70;99.40;;;;;;5090598;28;20793;-43
2022/11/29 05:17:32;;;;;;;2.90;2.70;;;8.70;99.40;;;;;;5094630;28;20418;-42
2022/11/29 05:20:46;;;;;;;3.17;2.87;;;8.70;99.40;;;;;;5092765;28;20564;-43
2022/11/29 05:23:36;;;;;;;2.40;2.20;;;8.70;99.40;;;;;;5093042;28;20418;-43
2022/11/29 05:26:13;;;;;;;3.33;2.87;;;8.70;99.40;;;;;;5093082;28;20449;-43
2022/11/29 05:28:53;;;;;;;3.40;3.10;;;8.70;99.40;;;;;;5091518;28;20799;-42
2022/11/29 05:31:19;;;;;;;5.47;3.10;;;8.70;99.50;;;;;;5091929;28;20778;-43
2022/11/29 05:34:09;;;;;;;2.93;2.63;;;8.70;99.40;;;;;;5094105;28;20399;-43
2022/11/29 05:37:25;;;;;;;3.97;2.87;;;8.70;99.50;;;;;;5092865;28;20164;-44
2022/11/29 05:40:19;;;;;;;3.20;2.90;;;8.70;99.50;;;;;;5090876;28;20685;-43
2022/11/29 05:43:03;;;;;;;4.63;3.10;;;8.60;99.50;;;;;;5091422;28;20417;-45
2022/11/29 05:45:43;;;;;;;3.90;2.97;;;8.60;99.50;;;;;;5092607;28;20441;-42
2022/11/29 05:48:28;;;;;;;3.03;2.73;;;8.60;99.60;;;;;;5088964;28;20445;-45
2022/11/29 05:51:27;;;;;;;4.13;2.87;;;8.60;99.60;;;;;;5090193;28;20422;-42
2022/11/29 05:54:11;;;;;;;3.73;3.00;;;8.60;99.60;;;;;;5094039;28;20437;-43
2022/11/29 05:56:52;;;;;;;5.53;3.07;;;8.60;99.60;;;;;;5094113;28;20450;-43
2022/11/29 05:59:21;;;;;;;3.70;3.27;;;8.60;99.60;;;;;;5094689;28;20569;-42
2022/11/29 06:02:05;;;;;;;4.10;3.00;;;8.60;99.70;;;;;;5073794;28;20522;-43
2022/11/29 06:04:33;;;;;;;3.87;3.17;;;8.60;99.70;;;;;;5072834;28;20685;-43
2022/11/29 06:07:26;;;;;;;3.30;3.00;;;8.60;99.70;;;;;;5070944;28;20512;-43
2022/11/29 06:10:00;;;;;;;3.03;2.73;;;8.50;99.70;;;;;;5073199;28;20419;-45
2022/11/29 06:12:26;;;;;;;3.27;2.80;;;8.50;99.80;;;;;;5070131;28;20415;-42
2022/11/29 06:14:58;;;;;;;3.80;3.23;;;8.50;99.80;;;;;;5068135;28;20832;-42
2022/11/29 06:17:47;;;;;;;3.87;3.30;;;8.50;99.80;;;;;;5067929;28;20419;-42
2022/11/29 06:20:44;;;;;;;5.50;3.30;;;8.50;99.90;;;;;;5064965;28;20565;-45
2022/11/29 06:23:31;;;;;;;3.07;2.77;;;8.50;99.90;;;;;;5065257;28;20415;-43
2022/11/29 06:26:02;;;;;;;5.83;2.83;;;8.50;99.90;;;;;;5069004;28;20771;-44
2022/11/29 06:28:40;;;;;;;3.80;3.30;;;8.50;99.90;;;;;;5070819;28;20464;-43
2022/11/29 06:31:26;;;;;;;4.40;3.40;;;8.50;99.90;;;;;;5071887;28;20529;-43
2022/11/29 06:34:27;;;;;;;5.43;3.70;;;8.50;99.90;;;;;;5070908;28;20426;-44
2022/11/29 06:37:16;;;;;;;4.60;3.13;;;8.40;99.90;;;;;;5073473;28;20408;-44
2022/11/29 06:39:42;;;;;;;4.10;3.27;;;8.50;99.90;;;;;;5072957;28;20528;-45
2022/11/29 06:42:07;;;;;;;4.50;3.50;;;8.50;99.90;;;;;;5070904;28;20699;-42
2022/11/29 06:44:33;;;;;;;3.43;3.07;;;8.40;99.90;;;;;;5070062;28;20813;-41
2022/11/29 06:47:07;;;;;;;4.23;3.30;;;8.50;99.90;;;;;;5071098;28;20185;-44
2022/11/29 06:49:47;;;;;;;5.30;3.70;;;8.50;99.90;;;;;;5072173;28;20419;-43
2022/11/29 06:52:24;;;;;;;4.17;3.50;;;8.50;99.90;;;;;;5069653;28;20419;-43
2022/11/29 06:54:54;;;;;;;4.97;3.43;;;8.40;99.90;;;;;;5072262;28;20943;-43
2022/11/29 06:57:29;;;;;;;6.83;5.00;;;8.40;99.90;;;;;;5072045;28;20920;-42
2022/11/29 07:00:16;;;;;;;4.13;3.13;;;8.40;99.90;;;;;;5074891;28;20466;-43
2022/11/29 07:03:19;;;;;;;4.83;3.43;;;8.40;99.90;;;;;;5074315;28;20413;-43
2022/11/29 07:05:45;;;;;;;3.40;3.10;;;8.40;99.90;;;;;;5072546;28;20415;-44
2022/11/29 07:08:22;;;;;;;5.40;3.60;;;8.40;99.90;;;;;;5071744;28;20480;-42
2022/11/29 07:10:51;;;;;;;4.47;3.60;;;8.40;99.90;;;;;;5073263;28;20453;-43
2022/11/29 07:13:18;;;;;;;4.00;3.23;;;8.40;99.90;;;;;;5075071;28;20411;-43
2022/11/29 07:15:47;;;;;;;3.50;3.20;;;8.40;99.90;;;;;;5076598;28;20423;-43
2022/11/29 07:18:36;;;;;;;3.87;3.53;;;8.40;99.90;;;;;;5075853;28;20821;-44
2022/11/29 07:21:10;;;;;;;4.30;3.03;;;8.50;99.90;;;;;;5071829;28;20462;-45
2022/11/29 07:23:59;;;;;;;3.43;3.00;;;8.50;99.90;;;;;;5074632;28;20698;-43
2022/11/29 07:27:01;;;;;;;5.00;3.47;;;8.50;99.90;;;;;;5073915;28;20431;-43
2022/11/29 07:29:33;;;;;;;4.80;4.30;;;8.60;99.90;;;;;;5076085;28;20418;-42
2022/11/29 07:32:40;;;;;;;7.93;3.27;;;8.60;99.90;;;;;;5074499;28;20769;-43
2022/11/29 07:35:19;;;;;;;3.67;3.13;;;8.60;99.90;;;;;;5077381;28;20423;-44
2022/11/29 07:38:16;;;;;;;4.80;3.17;;;8.60;99.90;;;;;;5070216;28;20442;-44
2022/11/29 07:40:47;;;;;;;4.60;2.83;;;8.70;99.90;;;;;;5073407;28;20757;-43
2022/11/29 07:43:16;;;;;;;3.67;2.83;;;8.70;99.90;;;;;;5072716;28;20502;-44
2022/11/29 07:45:42;;;;;;;6.10;3.50;;;8.70;99.90;;;;;;5073772;28;20430;-45
2022/11/29 07:48:10;;;;;;;4.40;3.20;;;8.80;99.90;;;;;;5072899;28;20420;-43
2022/11/29 07:50:35;;;;;;;3.53;3.17;;;8.80;99.90;;;;;;5075583;28;20189;-43
2022/11/29 07:53:01;;;;;;;4.00;3.20;;;8.80;99.80;;;;;;5075140;28;20439;-43
2022/11/29 07:55:28;;;;;;;5.87;3.50;;;8.80;99.80;;;;;;5073803;28;20177;-43
2022/11/29 07:57:54;;;;;;;4.87;3.80;;;8.90;99.80;;;;;;5072183;28;20436;-43
2022/11/29 08:00:20;;;;;;;7.57;3.80;;;8.90;99.70;;;;;;5072755;28;21150;-44
2022/11/29 08:02:48;;;;;;;4.40;4.00;;;9.00;99.70;;;;;;5076059;28;20840;-44
2022/11/29 08:05:13;;;;;;;6.50;3.67;;;9.00;99.70;;;;;;5077244;28;20433;-43
2022/11/29 08:07:40;;;;;;;6.43;4.17;;;9.00;99.70;;;;;;5073238;28;20408;-44
2022/11/29 08:10:11;;;;;;;3.90;3.40;;;9.00;99.60;;;;;;5074745;28;20187;-52
2022/11/29 08:12:45;;;;;;;4.23;3.47;;;9.00;99.60;;;;;;5072733;28;20484;-44
2022/11/29 08:15:11;;;;;;;4.37;3.50;;;9.10;99.60;;;;;;5072143;28;20476;-43
2022/11/29 08:17:37;;;;;;;5.77;4.00;;;9.10;99.50;;;;;;5073156;28;20427;-44
2022/11/29 08:20:04;;;;;;;4.23;3.83;;;9.10;99.50;;;;;;5072295;28;20482;-42
2022/11/29 08:22:30;;;;;;;4.50;4.10;;;9.10;99.50;;;;;;5073484;28;20713;-43
2022/11/29 08:24:56;;;;;;;3.97;3.67;;;9.20;99.50;;;;;;5073185;28;20510;-43
2022/11/29 08:27:22;;;;;;;4.23;3.83;;;9.20;99.60;;;;;;5076041;28;20634;-44
2022/11/29 08:29:48;;;;;;;5.17;4.67;;;9.20;99.50;;;;;;5082570;28;20450;-44
2022/11/29 08:32:14;;;;;;;5.80;5.20;;;9.20;99.50;;;;;;5093402;28;20617;-44
2022/11/29 08:34:40;;;;;;;5.23;4.73;;;9.20;99.50;;;;;;5093421;28;20454;-44
2022/11/29 08:37:05;;;;;;;5.50;4.27;;;9.20;99.60;;;;;;5093876;28;20191;-42
2022/11/29 08:39:31;;;;;;;5.40;4.00;;;9.30;99.60;;;;;;5093726;28;20623;-45
2022/11/29 08:41:56;;;;;;;4.30;3.90;;;9.20;99.50;;;;;;5091701;28;20177;-45
2022/11/29 08:44:22;;;;;;;4.47;4.07;;;9.30;99.60;;;;;;5093184;28;20183;-44
2022/11/29 08:49:32;;;;;;;4.10;3.70;;;9.30;99.60;;;;;;5092274;28;20237;-44
2022/11/29 08:54:42;;;;;;;4.40;3.93;;;9.30;99.60;;;;;;5093409;28;20179;-43
2022/11/29 08:57:07;;;;;;;4.53;3.90;;;9.30;99.60;;;;;;5092902;28;20470;-43
2022/11/29 08:59:33;;;;;;;4.40;4.00;;;9.30;99.60;;;;;;5092270;28;20618;-43
2022/11/29 09:01:59;;;;;;;4.53;3.73;;;9.30;99.60;;;;;;5092743;28;20168;-44
2022/11/29 09:04:24;;;;;;;4.73;4.10;;;9.30;99.60;;;;;;5093287;28;20207;-43
2022/11/29 09:06:50;;;;;;;4.60;4.20;;;9.30;99.60;;;;;;5096605;28;20173;-43
2022/11/29 09:09:16;;;;;;;5.33;3.93;;;9.30;99.60;;;;;;5096703;28;20558;-44
2022/11/29 09:11:45;;;;;;;3.90;3.50;;;9.40;99.70;;;;;;5094146;28;20165;-44
2022/11/29 09:14:14;;;;;;;5.33;4.83;;;9.40;99.70;;;;;;5095351;28;20446;-44
2022/11/29 09:16:40;;;;;;;4.83;4.17;;;9.40;99.70;;;;;;5094312;28;20887;-44
2022/11/29 09:19:06;;;;;;;4.60;4.20;;;9.40;99.80;;;;;;5094417;28;20423;-44
2022/11/29 09:21:35;;;;;;;4.70;4.13;;;9.40;99.80;;;;;;5094553;28;20172;-42
2022/11/29 09:24:05;;;;;;;4.40;3.83;;;9.40;99.70;;;;;;5096123;28;20429;-44
2022/11/29 09:26:33;;;;;;;4.53;4.13;;;9.50;99.70;;;;;;5095720;28;20827;-45
2022/11/29 09:29:00;;;;;;;4.27;3.90;;;9.40;99.90;;;;;;5094448;28;20418;-43
2022/11/29 09:31:27;;;;;;;6.03;4.80;;;9.50;99.80;;;;;;5095569;28;20509;-47
2022/11/29 09:33:54;;;;;;;5.33;4.83;;;9.50;99.70;;;;;;5095857;28;20848;-44
2022/11/29 09:36:19;;;;;;;6.83;4.20;;;9.50;99.80;;;;;;5096320;28;20446;-44
2022/11/29 09:38:45;;;;;;;3.97;2.33;;;9.50;99.60;;;;;;5096540;28;20472;-47
2022/11/29 09:41:29;;;;;;;6.87;3.10;;;10.20;99.90;;;;;;5094906;28;20303;-46
2022/11/29 09:44:19;;;;;;;5.90;3.20;;;11.10;99.90;;;;;;5095815;28;20171;-48
2022/11/29 09:46:52;;;;;;;4.50;3.07;;;11.90;99.90;;;;;;5095992;28;20471;-46
2022/11/29 09:49:38;;;;;;;2.47;2.20;;;12.40;99.90;;;;;;5094617;28;20753;-45
2022/11/29 09:52:39;;;;;;;3.30;2.50;;;12.90;99.90;;;;;;5096403;28;20812;-46
2022/11/29 09:55:23;;;;;;;3.20;2.50;;;13.30;99.90;;;;;;5094906;28;20854;-41
2022/11/29 09:57:50;;;;;;;3.80;3.07;;;13.80;99.90;;;;;;5098902;28;20446;-43
2022/11/29 10:00:18;;;;;;;4.20;3.80;;;13.90;99.90;;;;;;5097551;28;20597;-41
2022/11/29 10:02:57;;;;;;;5.03;3.80;;;13.60;99.40;;;;;;5096974;28;20483;-41
2022/11/29 10:05:37;;;;;;;4.33;3.93;;;13.20;97.70;;;;;;5096700;28;20915;-42
2022/11/29 10:08:14;;;;;;;3.83;3.50;;;12.80;96.90;;;;;;5095468;28;20696;-41
2022/11/29 10:10:44;;;;;;;4.20;3.77;;;12.40;96.60;;;;;;5097962;28;20495;-41
2022/11/29 10:13:18;;;;;;;4.53;4.13;;;12.00;96.60;;;;;;5096106;28;20708;-43
2022/11/29 10:15:46;;;;;;;3.83;3.40;;;11.70;96.50;;;;;;5097626;28;20417;-41
2022/11/29 10:18:37;;;;;;;4.10;3.70;;;11.40;96.70;;;;;;5098439;28;20422;-41
2022/11/29 10:21:16;;;;;;;4.67;3.67;;;11.20;96.90;;;;;;5097120;28;20492;-42
2022/11/29 10:23:49;;;;;;;3.83;3.53;;;11.00;97.10;;;;;;5099213;28;20426;-42
2022/11/29 10:26:15;;;;;;;3.97;3.63;;;10.90;97.30;;;;;;5096558;28;20426;-42
2022/11/29 10:28:47;;;;;;;7.20;4.57;;;10.80;97.40;;;;;;5100741;28;20840;-44
2022/11/29 10:31:34;;;;;;;4.33;3.90;;;10.70;97.50;;;;;;5099093;28;20253;-45
2022/11/29 10:34:11;;;;;;;4.53;4.00;;;10.60;97.60;;;;;;5098381;28;20414;-42
2022/11/29 10:36:47;;;;;;;5.30;4.80;;;10.60;97.60;;;;;;5097710;28;20517;-45
2022/11/29 10:39:45;;;;;;;5.83;5.23;;;10.50;97.60;;;;;;5096769;28;20418;-43
2022/11/29 10:45:08;;;;;;;5.03;4.57;;;10.50;97.60;;;;;;5098010;28;20582;-46
2022/11/29 10:47:34;;;;;;;5.20;4.70;;;10.50;97.50;;;;;;5096298;28;20431;-44
2022/11/29 10:49:59;;;;;;;5.60;5.10;;;10.50;97.40;;;;;;5094547;28;20726;-42
2022/11/29 10:52:25;;;;;;;5.70;5.20;;;10.50;38.70;;;;;;5095003;28;20206;-45
2022/11/29 10:54:55;;;;;;;5.97;5.40;;;10.40;52.60;;;;;;5096025;28;20243;-42
2022/11/29 10:57:21;;;;;;;6.67;5.80;;;10.40;86.10;;;;;;5091341;28;20228;-43
2022/11/29 10:59:59;;;;;;;5.37;4.90;;;10.50;83.00;;;;;;5094760;28;20773;-44
2022/11/29 11:02:26;;;;;;;5.70;5.20;;;10.50;24.10;;;;;;5094493;28;20430;-47
2022/11/29 11:04:52;;;;;;;4.00;2.67;;;10.50;1.00;;;;;;5079283;28;20434;-46
2022/11/29 11:07:46;;;;;;;3.57;3.23;;;11.40;1.00;;;;;;5096779;28;20438;-44
2022/11/29 11:10:25;;;;;;;6.80;4.67;;;12.10;1.00;;;;;;5093567;28;20438;-43
2022/11/29 11:13:21;;;;;;;5.40;4.90;;;12.10;99.90;;;;;;5094418;28;20414;-42
2022/11/29 11:15:47;;;;;;;5.50;5.00;;;11.90;1.00;;;;;;5090241;28;20462;-44
2022/11/29 11:18:24;;;;;;;5.27;4.77;;;11.80;99.90;;;;;;5092850;28;20803;-45
2022/11/29 11:20:56;;;;;;;5.10;4.70;;;11.60;99.90;;;;;;5093851;28;20447;-43
2022/11/29 11:23:29;;;;;;;5.77;5.23;;;11.50;90.90;;;;;;5092402;28;20460;-44
2022/11/29 11:25:57;;;;;;;6.00;5.40;;;11.40;1.00;;;;;;5093363;28;20426;-43
2022/11/29 11:28:26;;;;;;;5.67;5.17;;;11.30;99.90;;;;;;5094012;28;20905;-43
2022/11/29 11:30:55;;;;;;;5.90;5.40;;;11.20;99.90;;;;;;5091877;28;20422;-42
2022/11/29 11:33:31;;;;;;;5.63;5.13;;;11.00;99.90;;;;;;5091646;28;20441;-42
2022/11/29 11:36:06;;;;;;;5.50;5.03;;;11.00;15.50;;;;;;5094600;28;20471;-45
2022/11/29 11:38:36;;;;;;;5.30;4.80;;;10.90;1.00;;;;;;5093961;28;20418;-43
2022/11/29 11:41:17;;;;;;;5.80;5.30;;;10.80;1.00;;;;;;5094380;28;20639;-43
2022/11/29 11:43:56;;;;;;;5.40;4.90;;;10.80;1.00;;;;;;5091830;28;20425;-42
2022/11/29 11:46:22;;;;;;;4.87;4.47;;;10.80;1.00;;;;;;5090533;28;20858;-43
2022/11/29 11:48:49;;;;;;;5.93;5.00;;;10.70;1.00;;;;;;5095357;28;20512;-43
2022/11/29 11:51:23;;;;;;;5.73;4.80;;;10.80;1.00;;;;;;5094142;28;20423;-43
2022/11/29 11:53:52;;;;;;;5.73;5.23;;;10.70;1.00;;;;;;5093581;28;20413;-45
2022/11/29 11:56:18;;;;;;;5.80;5.20;;;10.70;1.00;;;;;;5094225;28;20478;-44
2022/11/29 11:58:50;;;;;;;5.03;4.63;;;10.70;1.00;;;;;;5093990;28;20414;-46
2022/11/29 12:01:35;;;;;;;4.83;4.43;;;10.60;1.00;;;;;;5093085;28;20466;-43
2022/11/29 12:04:17;;;;;;;6.97;4.73;;;10.70;1.00;;;;;;5094953;28;20413;-43
2022/11/29 12:06:50;;;;;;;4.83;4.40;;;10.70;1.00;;;;;;5094422;28;20411;-42
2022/11/29 12:09:37;;;;;;;4.43;4.03;;;10.70;1.00;;;;;;5096072;28;20418;-43
2022/11/29 12:12:34;;;;;;;4.03;2.47;;;10.70;1.00;;;;;;5093828;28;20403;-48
2022/11/29 12:15:19;;;;;;;4.67;3.23;;;11.20;99.90;;;;;;5090612;28;20437;-44
2022/11/29 12:18:00;;;;;;;3.97;3.60;;;12.10;1.00;;;;;;5089439;28;20785;-47
2022/11/29 12:20:53;;;;;;;4.57;3.30;;;12.70;1.00;;;;;;5095426;28;20482;-46
2022/11/29 12:23:27;;;;;;;3.70;3.27;;;13.10;99.90;;;;;;5079475;28;20428;-46
2022/11/29 12:26:13;;;;;;;3.30;2.50;;;13.60;1.00;;;;;;5072281;28;20468;-42
2022/11/29 12:28:40;;;;;;;4.23;2.50;;;14.00;99.90;;;;;;5071120;28;20488;-47
2022/11/29 12:31:38;;;;;;;3.00;2.70;;;14.20;1.00;;;;;;5070746;28;20423;-42
2022/11/29 12:34:28;;;;;;;3.70;2.73;;;14.40;1.00;;;;;;5067536;28;20501;-45
2022/11/29 12:37:30;;;;;;;4.10;2.30;;;14.50;99.90;;;;;;5072717;28;20412;-42
2022/11/29 12:40:01;;;;;;;3.47;2.90;;;14.60;1.00;;;;;;5069968;28;20464;-42
2022/11/29 12:42:42;;;;;;;4.20;3.80;;;14.60;99.90;;;;;;5072587;28;20416;-43
2022/11/29 12:45:53;;;;;;;4.63;3.60;;;14.40;1.00;;;;;;5077135;28;20430;-44
2022/11/29 12:48:37;;;;;;;4.53;4.10;;;13.90;99.90;;;;;;5052349;28;20434;-44
2022/11/29 12:51:21;;;;;;;4.37;3.97;;;13.40;1.00;;;;;;5093335;28;20440;-42
2022/11/29 12:53:52;;;;;;;3.73;3.43;;;13.00;1.00;;;;;;5092150;28;20759;-45
2022/11/29 12:56:33;;;;;;;5.83;4.93;;;12.80;1.00;;;;;;5094351;28;20458;-47
2022/11/29 12:59:23;;;;;;;6.17;5.57;;;12.50;1.00;;;;;;5093681;28;20497;-43
2022/11/29 13:02:03;;;;;;;4.97;4.47;;;12.20;1.00;;;;;;5092059;28;20426;-47
2022/11/29 13:04:39;;;;;;;4.83;4.43;;;12.10;99.90;;;;;;5088940;28;20422;-46
2022/11/29 13:07:23;;;;;;;5.20;4.70;;;12.00;99.90;;;;;;5090237;28;20421;-43
2022/11/29 13:10:03;;;;;;;6.33;5.73;;;11.90;99.90;;;;;;5093614;28;20418;-43
2022/11/29 13:12:35;;;;;;;6.00;5.50;;;11.90;99.90;;;;;;5094011;28;20398;-41
2022/11/29 13:15:15;;;;;;;5.37;4.87;;;11.90;99.90;;;;;;5092938;28;20410;-41
2022/11/29 13:17:56;;;;;;;5.47;4.97;;;12.00;99.90;;;;;;5094212;28;20408;-42
2022/11/29 13:20:39;;;;;;;8.40;6.07;;;12.10;99.90;;;;;;5095390;28;20498;-43
2022/11/29 13:23:29;;;;;;;6.30;5.70;;;12.10;46.70;;;;;;5094243;28;20692;-42
2022/11/29 13:25:56;;;;;;;6.20;5.60;;;12.10;1.00;;;;;;5094869;28;20507;-42
2022/11/29 13:28:43;;;;;;;6.80;5.47;;;12.10;1.00;;;;;;5094211;28;20411;-44
2022/11/29 13:31:27;;;;;;;5.60;5.10;;;12.10;1.00;;;;;;5093942;28;20426;-43
2022/11/29 13:34:17;;;;;;;6.27;5.67;;;12.10;1.00;;;;;;5094732;28;20410;-43
2022/11/29 13:36:54;;;;;;;4.97;4.47;;;12.00;1.00;;;;;;5094471;28;20461;-41
2022/11/29 13:39:42;;;;;;;5.43;4.93;;;12.00;1.00;;;;;;5093481;28;20521;-43
2022/11/29 13:42:14;;;;;;;4.70;4.30;;;12.00;1.00;;;;;;5093317;28;20405;-42
2022/11/29 13:44:58;;;;;;;5.67;5.20;;;12.00;1.00;;;;;;5090298;28;20852;-43
2022/11/29 13:47:24;;;;;;;5.17;4.67;;;11.90;1.00;;;;;;5092241;28;20425;-42
2022/11/29 13:50:03;;;;;;;4.93;4.40;;;11.80;1.00;;;;;;5092147;28;20657;-42
2022/11/29 13:52:43;;;;;;;4.93;4.53;;;11.70;1.00;;;;;;5094809;28;20180;-42
2022/11/29 13:55:17;;;;;;;5.13;4.60;;;11.70;1.00;;;;;;5091042;28;20695;-43